sensor_id;sensor_type;location;lat;lon;timestamp;temperature;humidity
78514;SHT31;67814;51.976;5.810;2023-04-29T00:01:55;13.0;69.5
78514;SHT31;67814;51.976;5.810;2023-04-29T00:04:26;13.0;69.4
78514;SHT31;67814;51.976;5.810;2023-04-29T00:06:56;13.1;69.5
78514;SHT31;67814;51.976;5.810;2023-04-29T00:09:26;13.1;69.8
78514;SHT31;67814;51.976;5.810;2023-04-29T00:11:55;13.1;69.6
78514;SHT31;67814;51.976;5.810;2023-04-29T00:14:25;13.1;70.2
78514;SHT31;67814;51.976;5.810;2023-04-29T00:16:54;13.1;69.7
78514;SHT31;67814;51.976;5.810;2023-04-29T00:19:24;13.1;69.4
78514;SHT31;67814;51.976;5.810;2023-04-29T00:21:55;13.1;69.3
78514;SHT31;67814;51.976;5.810;2023-04-29T00:24:26;13.1;69.2
78514;SHT31;67814;51.976;5.810;2023-04-29T00:26:56;13.1;70.1
78514;SHT31;67814;51.976;5.810;2023-04-29T00:29:25;13.1;69.9
78514;SHT31;67814;51.976;5.810;2023-04-29T00:31:57;13.1;69.9
78514;SHT31;67814;51.976;5.810;2023-04-29T00:34:27;13.1;70.2
78514;SHT31;67814;51.976;5.810;2023-04-29T00:36:56;13.1;69.8
78514;SHT31;67814;51.976;5.810;2023-04-29T00:39:26;13.1;70.2
78514;SHT31;67814;51.976;5.810;2023-04-29T00:41:56;13.1;70.3
78514;SHT31;67814;51.976;5.810;2023-04-29T00:44:25;13.1;70.3
78514;SHT31;67814;51.976;5.810;2023-04-29T00:46:55;13.1;70.9
78514;SHT31;67814;51.976;5.810;2023-04-29T00:49:28;13.1;70.8
78514;SHT31;67814;51.976;5.810;2023-04-29T00:51:58;13.1;70.6
78514;SHT31;67814;51.976;5.810;2023-04-29T00:54:29;13.1;70.4
78514;SHT31;67814;51.976;5.810;2023-04-29T00:57:00;13.1;70.3
78514;SHT31;67814;51.976;5.810;2023-04-29T00:59:30;13.1;70.6
78514;SHT31;67814;51.976;5.810;2023-04-29T01:02:02;13.2;70.4
78514;SHT31;67814;51.976;5.810;2023-04-29T01:04:33;13.2;70.7
78514;SHT31;67814;51.976;5.810;2023-04-29T01:07:13;13.2;70.4
78514;SHT31;67814;51.976;5.810;2023-04-29T01:09:52;13.2;70.3
78514;SHT31;67814;51.976;5.810;2023-04-29T01:12:37;13.2;70.3
78514;SHT31;67814;51.976;5.810;2023-04-29T01:15:15;13.2;69.9
78514;SHT31;67814;51.976;5.810;2023-04-29T01:17:50;13.2;69.8
78514;SHT31;67814;51.976;5.810;2023-04-29T01:20:25;13.2;70.3
78514;SHT31;67814;51.976;5.810;2023-04-29T01:22:55;13.2;69.9
78514;SHT31;67814;51.976;5.810;2023-04-29T01:25:25;13.2;70.0
78514;SHT31;67814;51.976;5.810;2023-04-29T01:28:04;13.3;69.9
78514;SHT31;67814;51.976;5.810;2023-04-29T01:30:44;13.3;69.5
78514;SHT31;67814;51.976;5.810;2023-04-29T01:33:26;13.3;69.6
78514;SHT31;67814;51.976;5.810;2023-04-29T01:36:11;13.3;69.4
78514;SHT31;67814;51.976;5.810;2023-04-29T01:38:48;13.3;69.5
78514;SHT31;67814;51.976;5.810;2023-04-29T01:41:29;13.3;68.7
78514;SHT31;67814;51.976;5.810;2023-04-29T01:44:02;13.2;68.6
78514;SHT31;67814;51.976;5.810;2023-04-29T01:46:33;13.2;69.4
78514;SHT31;67814;51.976;5.810;2023-04-29T01:49:03;13.1;69.8
78514;SHT31;67814;51.976;5.810;2023-04-29T01:51:33;13.1;69.6
78514;SHT31;67814;51.976;5.810;2023-04-29T01:54:03;13.1;69.8
78514;SHT31;67814;51.976;5.810;2023-04-29T01:56:35;13.1;69.5
78514;SHT31;67814;51.976;5.810;2023-04-29T01:59:05;13.1;70.1
78514;SHT31;67814;51.976;5.810;2023-04-29T02:01:34;13.0;70.4
78514;SHT31;67814;51.976;5.810;2023-04-29T02:04:04;13.1;70.0
78514;SHT31;67814;51.976;5.810;2023-04-29T02:06:34;13.1;69.6
78514;SHT31;67814;51.976;5.810;2023-04-29T02:09:03;13.0;69.8
78514;SHT31;67814;51.976;5.810;2023-04-29T02:11:33;13.0;70.3
78514;SHT31;67814;51.976;5.810;2023-04-29T02:14:02;13.0;70.0
78514;SHT31;67814;51.976;5.810;2023-04-29T02:16:33;13.0;70.4
78514;SHT31;67814;51.976;5.810;2023-04-29T02:19:02;13.0;70.0
78514;SHT31;67814;51.976;5.810;2023-04-29T02:21:32;13.0;70.2
78514;SHT31;67814;51.976;5.810;2023-04-29T02:24:02;13.0;69.9
78514;SHT31;67814;51.976;5.810;2023-04-29T02:26:32;13.0;69.7
78514;SHT31;67814;51.976;5.810;2023-04-29T02:29:02;13.0;69.3
78514;SHT31;67814;51.976;5.810;2023-04-29T02:31:34;13.0;69.7
78514;SHT31;67814;51.976;5.810;2023-04-29T02:34:04;13.0;69.7
78514;SHT31;67814;51.976;5.810;2023-04-29T02:36:34;13.0;70.3
78514;SHT31;67814;51.976;5.810;2023-04-29T02:39:03;13.0;69.6
78514;SHT31;67814;51.976;5.810;2023-04-29T02:41:33;13.0;69.7
78514;SHT31;67814;51.976;5.810;2023-04-29T02:44:03;12.9;70.0
78514;SHT31;67814;51.976;5.810;2023-04-29T02:46:32;12.9;69.9
78514;SHT31;67814;51.976;5.810;2023-04-29T02:49:03;12.9;70.4
78514;SHT31;67814;51.976;5.810;2023-04-29T02:51:32;12.9;69.7
78514;SHT31;67814;51.976;5.810;2023-04-29T02:54:02;13.0;70.1
78514;SHT31;67814;51.976;5.810;2023-04-29T02:56:32;13.0;69.7
78514;SHT31;67814;51.976;5.810;2023-04-29T02:59:01;12.9;69.7
78514;SHT31;67814;51.976;5.810;2023-04-29T03:01:31;12.9;69.8
78514;SHT31;67814;51.976;5.810;2023-04-29T03:04:01;12.9;70.0
78514;SHT31;67814;51.976;5.810;2023-04-29T03:06:30;12.9;70.5
78514;SHT31;67814;51.976;5.810;2023-04-29T03:09:00;12.9;70.0
78514;SHT31;67814;51.976;5.810;2023-04-29T03:11:30;12.9;69.5
78514;SHT31;67814;51.976;5.810;2023-04-29T03:14:00;12.9;69.5
78514;SHT31;67814;51.976;5.810;2023-04-29T03:16:30;12.9;69.0
78514;SHT31;67814;51.976;5.810;2023-04-29T03:19:01;12.9;69.1
78514;SHT31;67814;51.976;5.810;2023-04-29T03:21:30;12.9;69.3
78514;SHT31;67814;51.976;5.810;2023-04-29T03:24:00;12.9;69.1
78514;SHT31;67814;51.976;5.810;2023-04-29T03:26:30;12.9;69.2
78514;SHT31;67814;51.976;5.810;2023-04-29T03:28:59;12.9;68.9
78514;SHT31;67814;51.976;5.810;2023-04-29T03:31:29;12.8;69.0
78514;SHT31;67814;51.976;5.810;2023-04-29T03:34:00;12.8;69.8
78514;SHT31;67814;51.976;5.810;2023-04-29T03:36:30;12.8;69.6
78514;SHT31;67814;51.976;5.810;2023-04-29T03:39:00;12.8;69.9
78514;SHT31;67814;51.976;5.810;2023-04-29T03:41:29;12.8;70.1
78514;SHT31;67814;51.976;5.810;2023-04-29T03:43:59;12.8;69.0
78514;SHT31;67814;51.976;5.810;2023-04-29T03:46:29;12.8;69.4
78514;SHT31;67814;51.976;5.810;2023-04-29T03:48:59;12.8;69.9
78514;SHT31;67814;51.976;5.810;2023-04-29T03:51:28;12.8;70.1
78514;SHT31;67814;51.976;5.810;2023-04-29T03:53:58;12.8;69.4
78514;SHT31;67814;51.976;5.810;2023-04-29T03:56:28;12.8;69.7
78514;SHT31;67814;51.976;5.810;2023-04-29T03:58:57;12.8;69.8
78514;SHT31;67814;51.976;5.810;2023-04-29T04:01:27;12.8;69.2
78514;SHT31;67814;51.976;5.810;2023-04-29T04:03:57;12.7;69.6
78514;SHT31;67814;51.976;5.810;2023-04-29T04:06:26;12.7;69.6
78514;SHT31;67814;51.976;5.810;2023-04-29T04:08:56;12.7;69.5
78514;SHT31;67814;51.976;5.810;2023-04-29T04:11:25;12.7;69.7
78514;SHT31;67814;51.976;5.810;2023-04-29T04:13:55;12.7;69.4
78514;SHT31;67814;51.976;5.810;2023-04-29T04:16:25;12.7;69.6
78514;SHT31;67814;51.976;5.810;2023-04-29T04:18:55;12.7;69.0
78514;SHT31;67814;51.976;5.810;2023-04-29T04:21:25;12.7;69.4
78514;SHT31;67814;51.976;5.810;2023-04-29T04:23:56;12.7;69.5
78514;SHT31;67814;51.976;5.810;2023-04-29T04:26:26;12.7;69.4
78514;SHT31;67814;51.976;5.810;2023-04-29T04:28:55;12.7;68.8
78514;SHT31;67814;51.976;5.810;2023-04-29T04:31:27;12.7;68.5
78514;SHT31;67814;51.976;5.810;2023-04-29T04:33:57;12.7;68.4
78514;SHT31;67814;51.976;5.810;2023-04-29T04:36:27;12.7;68.0
78514;SHT31;67814;51.976;5.810;2023-04-29T04:38:59;12.7;67.5
78514;SHT31;67814;51.976;5.810;2023-04-29T04:41:28;12.6;67.7
78514;SHT31;67814;51.976;5.810;2023-04-29T04:43:59;12.5;68.0
78514;SHT31;67814;51.976;5.810;2023-04-29T04:46:29;12.5;68.0
78514;SHT31;67814;51.976;5.810;2023-04-29T04:48:59;12.5;67.7
78514;SHT31;67814;51.976;5.810;2023-04-29T04:51:30;12.4;68.7
78514;SHT31;67814;51.976;5.810;2023-04-29T04:54:01;12.4;68.6
78514;SHT31;67814;51.976;5.810;2023-04-29T04:56:31;12.4;68.2
78514;SHT31;67814;51.976;5.810;2023-04-29T04:59:04;12.4;69.1
78514;SHT31;67814;51.976;5.810;2023-04-29T05:01:33;12.4;69.7
78514;SHT31;67814;51.976;5.810;2023-04-29T05:04:03;12.4;69.3
78514;SHT31;67814;51.976;5.810;2023-04-29T05:06:32;12.5;68.8
78514;SHT31;67814;51.976;5.810;2023-04-29T05:09:02;12.5;68.3
78514;SHT31;67814;51.976;5.810;2023-04-29T05:11:34;12.5;69.0
78514;SHT31;67814;51.976;5.810;2023-04-29T05:14:04;12.6;68.0
78514;SHT31;67814;51.976;5.810;2023-04-29T05:16:34;12.6;68.4
78514;SHT31;67814;51.976;5.810;2023-04-29T05:19:04;12.6;68.9
78514;SHT31;67814;51.976;5.810;2023-04-29T05:21:36;12.6;69.3
78514;SHT31;67814;51.976;5.810;2023-04-29T05:24:07;12.7;68.2
78514;SHT31;67814;51.976;5.810;2023-04-29T05:26:37;12.8;68.1
78514;SHT31;67814;51.976;5.810;2023-04-29T05:29:06;12.8;68.4
78514;SHT31;67814;51.976;5.810;2023-04-29T05:31:36;12.9;68.5
78514;SHT31;67814;51.976;5.810;2023-04-29T05:34:06;12.9;67.4
78514;SHT31;67814;51.976;5.810;2023-04-29T05:36:35;12.9;67.1
78514;SHT31;67814;51.976;5.810;2023-04-29T05:39:05;13.0;67.8
78514;SHT31;67814;51.976;5.810;2023-04-29T05:41:35;13.0;66.3
78514;SHT31;67814;51.976;5.810;2023-04-29T05:44:05;13.0;65.9
78514;SHT31;67814;51.976;5.810;2023-04-29T05:46:34;13.0;66.1
78514;SHT31;67814;51.976;5.810;2023-04-29T05:49:06;13.1;66.0
78514;SHT31;67814;51.976;5.810;2023-04-29T05:51:35;13.1;65.8
78514;SHT31;67814;51.976;5.810;2023-04-29T05:54:05;13.1;66.0
78514;SHT31;67814;51.976;5.810;2023-04-29T05:56:34;13.1;65.8
78514;SHT31;67814;51.976;5.810;2023-04-29T05:59:04;13.1;66.0
78514;SHT31;67814;51.976;5.810;2023-04-29T06:01:34;13.1;66.2
78514;SHT31;67814;51.976;5.810;2023-04-29T06:04:05;13.1;66.1
78514;SHT31;67814;51.976;5.810;2023-04-29T06:06:35;13.1;66.4
78514;SHT31;67814;51.976;5.810;2023-04-29T06:09:05;13.1;66.4
78514;SHT31;67814;51.976;5.810;2023-04-29T06:11:35;13.2;66.1
78514;SHT31;67814;51.976;5.810;2023-04-29T06:14:05;13.2;65.9
78514;SHT31;67814;51.976;5.810;2023-04-29T06:16:35;13.3;64.8
78514;SHT31;67814;51.976;5.810;2023-04-29T06:19:04;13.3;65.0
78514;SHT31;67814;51.976;5.810;2023-04-29T06:21:34;13.3;65.1
78514;SHT31;67814;51.976;5.810;2023-04-29T06:24:04;13.3;64.8
78514;SHT31;67814;51.976;5.810;2023-04-29T06:26:34;13.3;65.6
78514;SHT31;67814;51.976;5.810;2023-04-29T06:29:03;13.3;65.1
78514;SHT31;67814;51.976;5.810;2023-04-29T06:31:33;13.3;66.7
78514;SHT31;67814;51.976;5.810;2023-04-29T06:34:03;13.3;65.2
78514;SHT31;67814;51.976;5.810;2023-04-29T06:36:32;13.3;65.2
78514;SHT31;67814;51.976;5.810;2023-04-29T06:39:02;13.4;65.0
78514;SHT31;67814;51.976;5.810;2023-04-29T06:41:32;13.4;65.7
78514;SHT31;67814;51.976;5.810;2023-04-29T06:44:03;13.5;64.7
78514;SHT31;67814;51.976;5.810;2023-04-29T06:46:32;13.5;64.6
78514;SHT31;67814;51.976;5.810;2023-04-29T06:49:02;13.5;63.8
78514;SHT31;67814;51.976;5.810;2023-04-29T06:51:33;13.6;65.1
78514;SHT31;67814;51.976;5.810;2023-04-29T06:54:03;13.6;63.7
78514;SHT31;67814;51.976;5.810;2023-04-29T06:56:35;13.6;62.9
78514;SHT31;67814;51.976;5.810;2023-04-29T06:59:04;13.6;62.7
78514;SHT31;67814;51.976;5.810;2023-04-29T07:01:34;13.6;63.6
78514;SHT31;67814;51.976;5.810;2023-04-29T07:04:04;13.6;63.2
78514;SHT31;67814;51.976;5.810;2023-04-29T07:06:33;13.7;63.2
78514;SHT31;67814;51.976;5.810;2023-04-29T07:09:03;13.7;63.8
78514;SHT31;67814;51.976;5.810;2023-04-29T07:11:33;13.7;62.0
78514;SHT31;67814;51.976;5.810;2023-04-29T07:14:03;13.7;62.5
78514;SHT31;67814;51.976;5.810;2023-04-29T07:16:33;13.7;62.6
78514;SHT31;67814;51.976;5.810;2023-04-29T07:19:03;13.7;61.4
78514;SHT31;67814;51.976;5.810;2023-04-29T07:21:32;13.8;62.2
78514;SHT31;67814;51.976;5.810;2023-04-29T07:24:02;13.8;62.3
78514;SHT31;67814;51.976;5.810;2023-04-29T07:26:33;13.8;62.3
78514;SHT31;67814;51.976;5.810;2023-04-29T07:29:02;13.9;61.7
78514;SHT31;67814;51.976;5.810;2023-04-29T07:31:32;13.9;61.5
78514;SHT31;67814;51.976;5.810;2023-04-29T07:34:02;13.9;61.5
78514;SHT31;67814;51.976;5.810;2023-04-29T07:36:31;14.0;62.2
78514;SHT31;67814;51.976;5.810;2023-04-29T07:39:02;14.0;62.5
78514;SHT31;67814;51.976;5.810;2023-04-29T07:41:31;14.1;61.7
78514;SHT31;67814;51.976;5.810;2023-04-29T07:44:01;14.2;61.6
78514;SHT31;67814;51.976;5.810;2023-04-29T07:46:31;14.2;61.4
78514;SHT31;67814;51.976;5.810;2023-04-29T07:49:00;14.2;60.7
78514;SHT31;67814;51.976;5.810;2023-04-29T07:51:31;14.3;60.2
78514;SHT31;67814;51.976;5.810;2023-04-29T07:54:01;14.3;60.8
78514;SHT31;67814;51.976;5.810;2023-04-29T07:56:31;14.4;60.0
78514;SHT31;67814;51.976;5.810;2023-04-29T07:59:02;14.4;61.2
78514;SHT31;67814;51.976;5.810;2023-04-29T08:01:32;14.5;60.3
78514;SHT31;67814;51.976;5.810;2023-04-29T08:04:01;14.6;59.2
78514;SHT31;67814;51.976;5.810;2023-04-29T08:06:31;14.7;58.4
78514;SHT31;67814;51.976;5.810;2023-04-29T08:09:01;14.7;58.5
78514;SHT31;67814;51.976;5.810;2023-04-29T08:11:30;14.8;59.2
78514;SHT31;67814;51.976;5.810;2023-04-29T08:14:00;14.9;58.2
78514;SHT31;67814;51.976;5.810;2023-04-29T08:16:32;15.0;57.9
78514;SHT31;67814;51.976;5.810;2023-04-29T08:19:01;15.1;58.3
78514;SHT31;67814;51.976;5.810;2023-04-29T08:21:31;15.2;57.1
78514;SHT31;67814;51.976;5.810;2023-04-29T08:24:00;15.2;56.3
78514;SHT31;67814;51.976;5.810;2023-04-29T08:26:32;15.3;56.0
78514;SHT31;67814;51.976;5.810;2023-04-29T08:29:01;15.4;57.2
78514;SHT31;67814;51.976;5.810;2023-04-29T08:31:31;15.4;55.1
78514;SHT31;67814;51.976;5.810;2023-04-29T08:34:01;15.5;55.7
78514;SHT31;67814;51.976;5.810;2023-04-29T08:36:30;15.5;55.1
78514;SHT31;67814;51.976;5.810;2023-04-29T08:39:02;15.6;55.0
78514;SHT31;67814;51.976;5.810;2023-04-29T08:41:32;15.6;55.1
78514;SHT31;67814;51.976;5.810;2023-04-29T08:44:02;15.6;54.6
78514;SHT31;67814;51.976;5.810;2023-04-29T08:46:31;15.7;57.2
78514;SHT31;67814;51.976;5.810;2023-04-29T08:49:02;15.7;54.3
78514;SHT31;67814;51.976;5.810;2023-04-29T08:51:32;15.8;55.2
78514;SHT31;67814;51.976;5.810;2023-04-29T08:54:02;15.8;54.0
78514;SHT31;67814;51.976;5.810;2023-04-29T08:56:33;15.9;52.9
78514;SHT31;67814;51.976;5.810;2023-04-29T08:59:03;15.9;53.8
78514;SHT31;67814;51.976;5.810;2023-04-29T09:01:35;16.0;52.8
78514;SHT31;67814;51.976;5.810;2023-04-29T09:04:14;16.0;51.7
78514;SHT31;67814;51.976;5.810;2023-04-29T09:06:46;16.0;53.1
78514;SHT31;67814;51.976;5.810;2023-04-29T09:09:16;16.0;54.5
78514;SHT31;67814;51.976;5.810;2023-04-29T09:11:46;16.0;54.0
78514;SHT31;67814;51.976;5.810;2023-04-29T09:14:16;16.1;52.7
78514;SHT31;67814;51.976;5.810;2023-04-29T09:16:47;16.1;52.5
78514;SHT31;67814;51.976;5.810;2023-04-29T09:19:31;16.1;52.8
78514;SHT31;67814;51.976;5.810;2023-04-29T09:22:02;16.1;52.8
78514;SHT31;67814;51.976;5.810;2023-04-29T09:24:33;16.2;52.7
78514;SHT31;67814;51.976;5.810;2023-04-29T09:27:04;16.2;52.8
78514;SHT31;67814;51.976;5.810;2023-04-29T09:29:35;16.2;52.2
78514;SHT31;67814;51.976;5.810;2023-04-29T09:32:19;16.2;52.6
78514;SHT31;67814;51.976;5.810;2023-04-29T09:34:49;16.3;52.9
78514;SHT31;67814;51.976;5.810;2023-04-29T09:37:26;16.3;50.8
78514;SHT31;67814;51.976;5.810;2023-04-29T09:39:56;16.3;51.8
78514;SHT31;67814;51.976;5.810;2023-04-29T09:42:28;16.4;51.4
78514;SHT31;67814;51.976;5.810;2023-04-29T09:44:58;16.4;52.3
78514;SHT31;67814;51.976;5.810;2023-04-29T09:47:30;16.4;50.3
78514;SHT31;67814;51.976;5.810;2023-04-29T09:50:11;16.5;49.9
78514;SHT31;67814;51.976;5.810;2023-04-29T09:52:42;16.5;50.1
78514;SHT31;67814;51.976;5.810;2023-04-29T09:55:14;16.5;50.4
78514;SHT31;67814;51.976;5.810;2023-04-29T09:57:44;16.5;49.6
78514;SHT31;67814;51.976;5.810;2023-04-29T10:00:14;16.6;50.7
78514;SHT31;67814;51.976;5.810;2023-04-29T10:02:46;16.6;50.8
78514;SHT31;67814;51.976;5.810;2023-04-29T10:05:16;16.6;49.7
78514;SHT31;67814;51.976;5.810;2023-04-29T10:07:47;16.7;48.0
78514;SHT31;67814;51.976;5.810;2023-04-29T10:10:20;16.7;48.0
78514;SHT31;67814;51.976;5.810;2023-04-29T10:12:54;16.7;51.1
78514;SHT31;67814;51.976;5.810;2023-04-29T10:15:32;16.7;50.3
78514;SHT31;67814;51.976;5.810;2023-04-29T10:18:13;16.8;49.1
78514;SHT31;67814;51.976;5.810;2023-04-29T10:20:47;16.9;49.0
78514;SHT31;67814;51.976;5.810;2023-04-29T10:23:20;16.9;48.7
78514;SHT31;67814;51.976;5.810;2023-04-29T10:25:52;17.0;48.3
78514;SHT31;67814;51.976;5.810;2023-04-29T10:28:24;17.0;46.9
78514;SHT31;67814;51.976;5.810;2023-04-29T10:30:55;16.9;47.2
78514;SHT31;67814;51.976;5.810;2023-04-29T10:33:32;16.9;48.1
78514;SHT31;67814;51.976;5.810;2023-04-29T10:36:02;16.9;48.5
78514;SHT31;67814;51.976;5.810;2023-04-29T10:38:35;16.9;48.6
78514;SHT31;67814;51.976;5.810;2023-04-29T10:41:18;16.9;49.8
78514;SHT31;67814;51.976;5.810;2023-04-29T10:43:51;17.0;47.5
78514;SHT31;67814;51.976;5.810;2023-04-29T10:46:23;17.0;47.9
78514;SHT31;67814;51.976;5.810;2023-04-29T10:48:56;17.0;46.2
78514;SHT31;67814;51.976;5.810;2023-04-29T10:51:30;17.0;46.1
78514;SHT31;67814;51.976;5.810;2023-04-29T10:54:05;17.1;46.9
78514;SHT31;67814;51.976;5.810;2023-04-29T10:56:40;17.1;45.7
78514;SHT31;67814;51.976;5.810;2023-04-29T10:59:15;17.1;47.5
78514;SHT31;67814;51.976;5.810;2023-04-29T11:01:47;17.1;48.3
78514;SHT31;67814;51.976;5.810;2023-04-29T11:04:18;17.2;47.8
78514;SHT31;67814;51.976;5.810;2023-04-29T11:06:51;17.3;46.9
78514;SHT31;67814;51.976;5.810;2023-04-29T11:09:24;17.4;46.8
78514;SHT31;67814;51.976;5.810;2023-04-29T11:11:58;17.4;47.2
78514;SHT31;67814;51.976;5.810;2023-04-29T11:14:34;17.5;45.4
78514;SHT31;67814;51.976;5.810;2023-04-29T11:17:11;17.5;47.4
78514;SHT31;67814;51.976;5.810;2023-04-29T11:19:43;17.6;47.1
78514;SHT31;67814;51.976;5.810;2023-04-29T11:22:25;17.6;45.0
78514;SHT31;67814;51.976;5.810;2023-04-29T11:24:59;17.7;46.2
78514;SHT31;67814;51.976;5.810;2023-04-29T11:27:32;17.7;46.8
78514;SHT31;67814;51.976;5.810;2023-04-29T11:30:04;17.8;47.4
78514;SHT31;67814;51.976;5.810;2023-04-29T11:32:36;17.9;45.8
78514;SHT31;67814;51.976;5.810;2023-04-29T11:35:11;18.0;46.8
78514;SHT31;67814;51.976;5.810;2023-04-29T11:37:42;18.1;44.8
78514;SHT31;67814;51.976;5.810;2023-04-29T11:40:13;18.3;44.6
78514;SHT31;67814;51.976;5.810;2023-04-29T11:42:45;18.4;43.7
78514;SHT31;67814;51.976;5.810;2023-04-29T11:45:16;18.4;44.3
78514;SHT31;67814;51.976;5.810;2023-04-29T11:47:47;18.5;43.7
78514;SHT31;67814;51.976;5.810;2023-04-29T11:50:17;18.5;43.3
78514;SHT31;67814;51.976;5.810;2023-04-29T11:52:49;18.5;42.5
78514;SHT31;67814;51.976;5.810;2023-04-29T11:55:19;18.6;43.5
78514;SHT31;67814;51.976;5.810;2023-04-29T11:57:49;18.6;42.8
78514;SHT31;67814;51.976;5.810;2023-04-29T12:00:19;18.6;42.9
78514;SHT31;67814;51.976;5.810;2023-04-29T12:02:49;18.6;43.9
78514;SHT31;67814;51.976;5.810;2023-04-29T12:05:19;18.6;43.2
78514;SHT31;67814;51.976;5.810;2023-04-29T12:07:51;18.6;43.3
78514;SHT31;67814;51.976;5.810;2023-04-29T12:10:23;18.6;46.1
78514;SHT31;67814;51.976;5.810;2023-04-29T12:12:54;18.6;43.8
78514;SHT31;67814;51.976;5.810;2023-04-29T12:15:25;18.7;44.0
78514;SHT31;67814;51.976;5.810;2023-04-29T12:17:56;18.7;43.5
78514;SHT31;67814;51.976;5.810;2023-04-29T12:20:26;18.8;44.6
78514;SHT31;67814;51.976;5.810;2023-04-29T12:22:56;18.8;44.0
78514;SHT31;67814;51.976;5.810;2023-04-29T12:25:33;18.9;43.1
78514;SHT31;67814;51.976;5.810;2023-04-29T12:28:03;18.9;42.7
78514;SHT31;67814;51.976;5.810;2023-04-29T12:30:36;19.0;43.0
78514;SHT31;67814;51.976;5.810;2023-04-29T12:33:07;19.0;43.1
78514;SHT31;67814;51.976;5.810;2023-04-29T12:35:37;19.1;42.3
78514;SHT31;67814;51.976;5.810;2023-04-29T12:38:07;19.1;41.5
78514;SHT31;67814;51.976;5.810;2023-04-29T12:40:37;19.0;41.3
78514;SHT31;67814;51.976;5.810;2023-04-29T12:43:10;19.0;42.0
78514;SHT31;67814;51.976;5.810;2023-04-29T12:45:40;19.0;42.3
78514;SHT31;67814;51.976;5.810;2023-04-29T12:48:11;19.0;42.5
78514;SHT31;67814;51.976;5.810;2023-04-29T12:50:42;19.1;41.8
78514;SHT31;67814;51.976;5.810;2023-04-29T12:53:12;19.1;40.8
78514;SHT31;67814;51.976;5.810;2023-04-29T12:55:42;19.1;41.6
78514;SHT31;67814;51.976;5.810;2023-04-29T12:58:12;19.1;42.7
78514;SHT31;67814;51.976;5.810;2023-04-29T13:00:41;19.1;41.8
78514;SHT31;67814;51.976;5.810;2023-04-29T13:03:11;19.1;42.4
78514;SHT31;67814;51.976;5.810;2023-04-29T13:05:41;19.1;44.0
78514;SHT31;67814;51.976;5.810;2023-04-29T13:08:11;19.1;42.1
78514;SHT31;67814;51.976;5.810;2023-04-29T13:10:41;19.2;40.9
78514;SHT31;67814;51.976;5.810;2023-04-29T13:13:11;19.2;41.7
78514;SHT31;67814;51.976;5.810;2023-04-29T13:15:45;19.2;41.7
78514;SHT31;67814;51.976;5.810;2023-04-29T13:18:15;19.2;41.9
78514;SHT31;67814;51.976;5.810;2023-04-29T13:20:45;19.2;42.0
78514;SHT31;67814;51.976;5.810;2023-04-29T13:23:15;19.2;40.6
78514;SHT31;67814;51.976;5.810;2023-04-29T13:25:44;19.2;40.9
78514;SHT31;67814;51.976;5.810;2023-04-29T13:28:14;19.2;41.0
78514;SHT31;67814;51.976;5.810;2023-04-29T13:30:44;19.2;41.0
78514;SHT31;67814;51.976;5.810;2023-04-29T13:33:14;19.2;42.3
78514;SHT31;67814;51.976;5.810;2023-04-29T13:35:43;19.2;40.4
78514;SHT31;67814;51.976;5.810;2023-04-29T13:38:15;19.2;41.4
78514;SHT31;67814;51.976;5.810;2023-04-29T13:40:46;19.2;42.0
78514;SHT31;67814;51.976;5.810;2023-04-29T13:43:15;19.2;41.2
78514;SHT31;67814;51.976;5.810;2023-04-29T13:45:45;19.2;41.2
78514;SHT31;67814;51.976;5.810;2023-04-29T13:48:15;19.2;43.4
78514;SHT31;67814;51.976;5.810;2023-04-29T13:50:45;19.2;41.8
78514;SHT31;67814;51.976;5.810;2023-04-29T13:53:15;19.2;41.8
78514;SHT31;67814;51.976;5.810;2023-04-29T13:55:45;19.2;41.7
78514;SHT31;67814;51.976;5.810;2023-04-29T13:58:15;19.2;41.8
78514;SHT31;67814;51.976;5.810;2023-04-29T14:00:44;19.2;41.9
78514;SHT31;67814;51.976;5.810;2023-04-29T14:03:15;19.3;40.3
78514;SHT31;67814;51.976;5.810;2023-04-29T14:05:45;19.3;39.1
78514;SHT31;67814;51.976;5.810;2023-04-29T14:08:15;19.3;40.3
78514;SHT31;67814;51.976;5.810;2023-04-29T14:10:44;19.3;41.3
78514;SHT31;67814;51.976;5.810;2023-04-29T14:13:14;19.2;39.7
78514;SHT31;67814;51.976;5.810;2023-04-29T14:15:44;19.2;39.8
78514;SHT31;67814;51.976;5.810;2023-04-29T14:18:14;19.2;39.9
78514;SHT31;67814;51.976;5.810;2023-04-29T14:20:43;19.1;41.0
78514;SHT31;67814;51.976;5.810;2023-04-29T14:23:13;19.1;39.7
78514;SHT31;67814;51.976;5.810;2023-04-29T14:25:42;19.1;41.3
78514;SHT31;67814;51.976;5.810;2023-04-29T14:28:12;19.1;40.9
78514;SHT31;67814;51.976;5.810;2023-04-29T14:30:42;19.1;40.4
78514;SHT31;67814;51.976;5.810;2023-04-29T14:33:12;19.1;39.9
78514;SHT31;67814;51.976;5.810;2023-04-29T14:35:41;19.1;40.3
78514;SHT31;67814;51.976;5.810;2023-04-29T14:38:11;19.1;40.1
78514;SHT31;67814;51.976;5.810;2023-04-29T14:40:41;19.1;40.8
78514;SHT31;67814;51.976;5.810;2023-04-29T14:43:10;19.1;39.6
78514;SHT31;67814;51.976;5.810;2023-04-29T14:45:40;19.1;40.2
78514;SHT31;67814;51.976;5.810;2023-04-29T14:48:10;19.1;43.2
78514;SHT31;67814;51.976;5.810;2023-04-29T14:50:40;19.1;41.5
78514;SHT31;67814;51.976;5.810;2023-04-29T14:53:10;19.1;40.3
78514;SHT31;67814;51.976;5.810;2023-04-29T14:55:40;19.1;40.1
78514;SHT31;67814;51.976;5.810;2023-04-29T14:58:09;19.1;41.9
78514;SHT31;67814;51.976;5.810;2023-04-29T15:00:41;19.1;42.3
78514;SHT31;67814;51.976;5.810;2023-04-29T15:03:11;19.1;42.0
78514;SHT31;67814;51.976;5.810;2023-04-29T15:05:41;19.2;41.2
78514;SHT31;67814;51.976;5.810;2023-04-29T15:08:10;19.2;40.5
78514;SHT31;67814;51.976;5.810;2023-04-29T15:10:40;19.2;41.1
78514;SHT31;67814;51.976;5.810;2023-04-29T15:13:10;19.2;41.8
78514;SHT31;67814;51.976;5.810;2023-04-29T15:15:39;19.2;42.5
78514;SHT31;67814;51.976;5.810;2023-04-29T15:18:09;19.2;40.6
78514;SHT31;67814;51.976;5.810;2023-04-29T15:20:39;19.2;40.8
78514;SHT31;67814;51.976;5.810;2023-04-29T15:23:09;19.2;41.3
78514;SHT31;67814;51.976;5.810;2023-04-29T15:25:38;19.2;41.0
78514;SHT31;67814;51.976;5.810;2023-04-29T15:28:08;19.2;42.0
78514;SHT31;67814;51.976;5.810;2023-04-29T15:30:37;19.2;42.0
78514;SHT31;67814;51.976;5.810;2023-04-29T15:33:07;19.2;41.5
78514;SHT31;67814;51.976;5.810;2023-04-29T15:35:38;19.2;41.3
78514;SHT31;67814;51.976;5.810;2023-04-29T15:38:07;19.2;41.2
78514;SHT31;67814;51.976;5.810;2023-04-29T15:40:38;19.1;41.3
78514;SHT31;67814;51.976;5.810;2023-04-29T15:43:08;19.1;41.1
78514;SHT31;67814;51.976;5.810;2023-04-29T15:45:37;19.1;41.6
78514;SHT31;67814;51.976;5.810;2023-04-29T15:48:08;19.0;41.8
78514;SHT31;67814;51.976;5.810;2023-04-29T15:50:38;19.0;40.1
78514;SHT31;67814;51.976;5.810;2023-04-29T15:53:07;19.0;39.6
78514;SHT31;67814;51.976;5.810;2023-04-29T15:55:37;18.9;40.3
78514;SHT31;67814;51.976;5.810;2023-04-29T15:58:07;18.9;40.1
78514;SHT31;67814;51.976;5.810;2023-04-29T16:00:39;18.8;40.1
78514;SHT31;67814;51.976;5.810;2023-04-29T16:03:08;18.8;41.7
78514;SHT31;67814;51.976;5.810;2023-04-29T16:05:38;18.7;41.9
78514;SHT31;67814;51.976;5.810;2023-04-29T16:08:08;18.7;40.9
78514;SHT31;67814;51.976;5.810;2023-04-29T16:10:39;18.7;40.6
78514;SHT31;67814;51.976;5.810;2023-04-29T16:13:09;18.7;42.0
78514;SHT31;67814;51.976;5.810;2023-04-29T16:15:40;18.7;42.4
78514;SHT31;67814;51.976;5.810;2023-04-29T16:18:12;18.8;41.4
78514;SHT31;67814;51.976;5.810;2023-04-29T16:20:44;18.8;42.7
78514;SHT31;67814;51.976;5.810;2023-04-29T16:23:13;18.8;41.2
78514;SHT31;67814;51.976;5.810;2023-04-29T16:25:43;18.8;41.5